sensor_id;sensor_type;location;lat;lon;timestamp;temperature;humidity
3614;DHT22;1821;50.936;6.854;2023-04-24T00:00:41;11.60;99.90
3614;DHT22;1821;50.936;6.854;2023-04-24T00:01:23;11.70;99.90
3614;DHT22;1821;50.936;6.854;2023-04-24T00:02:05;11.70;99.90
3614;DHT22;1821;50.936;6.854;2023-04-24T00:02:48;11.40;99.90
3614;DHT22;1821;50.936;6.854;2023-04-24T00:03:32;11.80;99.90
3614;DHT22;1821;50.936;6.854;2023-04-24T00:04:15;11.50;99.90
3614;DHT22;1821;50.936;6.854;2023-04-24T00:04:59;11.70;99.90
3614;DHT22;1821;50.936;6.854;2023-04-24T00:05:46;11.90;99.90
3614;DHT22;1821;50.936;6.854;2023-04-24T00:06:30;11.40;99.90
3614;DHT22;1821;50.936;6.854;2023-04-24T00:07:15;11.80;99.90
3614;DHT22;1821;50.936;6.854;2023-04-24T00:08:02;11.60;99.90
3614;DHT22;1821;50.936;6.854;2023-04-24T00:08:45;11.80;99.90
3614;DHT22;1821;50.936;6.854;2023-04-24T00:09:27;11.60;99.90
3614;DHT22;1821;50.936;6.854;2023-04-24T00:10:11;11.40;99.90
3614;DHT22;1821;50.936;6.854;2023-04-24T00:10:53;11.50;99.90
3614;DHT22;1821;50.936;6.854;2023-04-24T00:11:35;11.70;99.90
3614;DHT22;1821;50.936;6.854;2023-04-24T00:12:17;11.60;99.90
3614;DHT22;1821;50.936;6.854;2023-04-24T00:12:59;11.70;99.90
3614;DHT22;1821;50.936;6.854;2023-04-24T00:13:41;11.70;99.90
3614;DHT22;1821;50.936;6.854;2023-04-24T00:14:22;11.40;99.90
3614;DHT22;1821;50.936;6.854;2023-04-24T00:15:05;11.50;99.90
3614;DHT22;1821;50.936;6.854;2023-04-24T00:15:47;11.40;99.90
3614;DHT22;1821;50.936;6.854;2023-04-24T00:16:29;12.00;99.90
3614;DHT22;1821;50.936;6.854;2023-04-24T00:17:11;11.80;99.90
3614;DHT22;1821;50.936;6.854;2023-04-24T00:17:53;11.50;99.90
3614;DHT22;1821;50.936;6.854;2023-04-24T00:18:35;11.60;99.90
3614;DHT22;1821;50.936;6.854;2023-04-24T00:19:17;11.90;99.90
3614;DHT22;1821;50.936;6.854;2023-04-24T00:19:59;11.90;99.90
3614;DHT22;1821;50.936;6.854;2023-04-24T00:20:41;11.70;99.90
3614;DHT22;1821;50.936;6.854;2023-04-24T00:21:23;11.90;99.90
3614;DHT22;1821;50.936;6.854;2023-04-24T00:22:07;11.70;99.90
3614;DHT22;1821;50.936;6.854;2023-04-24T00:22:49;11.80;99.90
3614;DHT22;1821;50.936;6.854;2023-04-24T00:23:31;11.80;99.90
3614;DHT22;1821;50.936;6.854;2023-04-24T00:24:13;11.80;99.90
3614;DHT22;1821;50.936;6.854;2023-04-24T00:24:55;11.70;99.90
3614;DHT22;1821;50.936;6.854;2023-04-24T00:25:37;11.80;99.90
3614;DHT22;1821;50.936;6.854;2023-04-24T00:26:19;11.60;99.90
3614;DHT22;1821;50.936;6.854;2023-04-24T00:27:00;12.40;99.90
3614;DHT22;1821;50.936;6.854;2023-04-24T00:27:43;11.70;99.90
3614;DHT22;1821;50.936;6.854;2023-04-24T00:28:25;11.60;99.90
3614;DHT22;1821;50.936;6.854;2023-04-24T00:29:07;11.90;99.90
3614;DHT22;1821;50.936;6.854;2023-04-24T00:29:50;11.70;99.90
3614;DHT22;1821;50.936;6.854;2023-04-24T00:30:32;12.00;99.90
3614;DHT22;1821;50.936;6.854;2023-04-24T00:31:15;11.70;99.90
3614;DHT22;1821;50.936;6.854;2023-04-24T00:31:57;11.70;99.90
3614;DHT22;1821;50.936;6.854;2023-04-24T00:32:40;11.80;99.90
3614;DHT22;1821;50.936;6.854;2023-04-24T00:33:22;11.50;99.90
3614;DHT22;1821;50.936;6.854;2023-04-24T00:34:04;11.40;99.90
3614;DHT22;1821;50.936;6.854;2023-04-24T00:34:46;11.80;99.90
3614;DHT22;1821;50.936;6.854;2023-04-24T00:35:28;11.90;99.90
3614;DHT22;1821;50.936;6.854;2023-04-24T00:36:12;11.80;99.90
3614;DHT22;1821;50.936;6.854;2023-04-24T00:36:55;11.70;99.90
3614;DHT22;1821;50.936;6.854;2023-04-24T00:37:37;11.60;99.90
3614;DHT22;1821;50.936;6.854;2023-04-24T00:38:19;11.60;99.90
3614;DHT22;1821;50.936;6.854;2023-04-24T00:39:01;11.90;99.90
3614;DHT22;1821;50.936;6.854;2023-04-24T00:39:46;11.50;99.90
3614;DHT22;1821;50.936;6.854;2023-04-24T00:40:28;11.70;99.90
3614;DHT22;1821;50.936;6.854;2023-04-24T00:41:10;11.40;99.90
3614;DHT22;1821;50.936;6.854;2023-04-24T00:41:53;11.80;99.90
3614;DHT22;1821;50.936;6.854;2023-04-24T00:42:38;11.70;99.90
3614;DHT22;1821;50.936;6.854;2023-04-24T00:43:21;11.60;99.90
3614;DHT22;1821;50.936;6.854;2023-04-24T00:44:03;11.80;99.90
3614;DHT22;1821;50.936;6.854;2023-04-24T00:44:45;11.70;99.90
3614;DHT22;1821;50.936;6.854;2023-04-24T00:45:27;11.90;99.90
3614;DHT22;1821;50.936;6.854;2023-04-24T00:46:10;11.40;99.90
3614;DHT22;1821;50.936;6.854;2023-04-24T00:46:54;11.70;99.90
3614;DHT22;1821;50.936;6.854;2023-04-24T00:47:36;11.80;99.90
3614;DHT22;1821;50.936;6.854;2023-04-24T00:48:19;11.80;99.90
3614;DHT22;1821;50.936;6.854;2023-04-24T00:49:02;11.70;99.90
3614;DHT22;1821;50.936;6.854;2023-04-24T00:49:44;11.60;99.90
3614;DHT22;1821;50.936;6.854;2023-04-24T00:50:29;11.80;99.90
3614;DHT22;1821;50.936;6.854;2023-04-24T00:51:12;11.60;99.90
3614;DHT22;1821;50.936;6.854;2023-04-24T00:51:54;11.60;99.90
3614;DHT22;1821;50.936;6.854;2023-04-24T00:52:36;11.60;99.90
3614;DHT22;1821;50.936;6.854;2023-04-24T00:53:19;11.70;99.90
3614;DHT22;1821;50.936;6.854;2023-04-24T00:54:01;11.50;99.90
3614;DHT22;1821;50.936;6.854;2023-04-24T00:54:46;11.80;99.90
3614;DHT22;1821;50.936;6.854;2023-04-24T00:55:28;11.70;99.90
3614;DHT22;1821;50.936;6.854;2023-04-24T00:56:10;11.50;99.90
3614;DHT22;1821;50.936;6.854;2023-04-24T00:56:52;11.70;99.90
3614;DHT22;1821;50.936;6.854;2023-04-24T00:57:35;11.60;99.90
3614;DHT22;1821;50.936;6.854;2023-04-24T00:58:17;11.60;99.90
3614;DHT22;1821;50.936;6.854;2023-04-24T00:58:59;11.40;99.90
3614;DHT22;1821;50.936;6.854;2023-04-24T00:59:42;11.90;99.90
3614;DHT22;1821;50.936;6.854;2023-04-24T01:00:25;11.80;99.90
3614;DHT22;1821;50.936;6.854;2023-04-24T01:01:09;11.60;99.90
3614;DHT22;1821;50.936;6.854;2023-04-24T01:01:51;11.30;99.90
3614;DHT22;1821;50.936;6.854;2023-04-24T01:02:33;11.70;99.90
3614;DHT22;1821;50.936;6.854;2023-04-24T01:03:16;11.30;99.90
3614;DHT22;1821;50.936;6.854;2023-04-24T01:04:00;11.30;99.90
3614;DHT22;1821;50.936;6.854;2023-04-24T01:04:44;11.70;99.90
3614;DHT22;1821;50.936;6.854;2023-04-24T01:05:26;11.60;99.90
3614;DHT22;1821;50.936;6.854;2023-04-24T01:06:09;11.50;99.90
3614;DHT22;1821;50.936;6.854;2023-04-24T01:06:52;11.60;99.90
3614;DHT22;1821;50.936;6.854;2023-04-24T01:07:34;11.60;99.90
3614;DHT22;1821;50.936;6.854;2023-04-24T01:08:17;11.20;99.90
3614;DHT22;1821;50.936;6.854;2023-04-24T01:08:59;12.00;99.90
3614;DHT22;1821;50.936;6.854;2023-04-24T01:09:41;11.50;99.90
3614;DHT22;1821;50.936;6.854;2023-04-24T01:10:27;11.30;99.90
3614;DHT22;1821;50.936;6.854;2023-04-24T01:11:11;11.60;99.90
3614;DHT22;1821;50.936;6.854;2023-04-24T01:11:53;11.30;99.90
3614;DHT22;1821;50.936;6.854;2023-04-24T01:12:35;11.60;99.90
3614;DHT22;1821;50.936;6.854;2023-04-24T01:13:19;11.20;99.90
3614;DHT22;1821;50.936;6.854;2023-04-24T01:14:01;11.40;99.90
3614;DHT22;1821;50.936;6.854;2023-04-24T01:14:44;11.40;99.90
3614;DHT22;1821;50.936;6.854;2023-04-24T01:15:26;11.60;99.90
3614;DHT22;1821;50.936;6.854;2023-04-24T01:16:08;11.60;99.90
3614;DHT22;1821;50.936;6.854;2023-04-24T01:16:52;11.70;99.90
3614;DHT22;1821;50.936;6.854;2023-04-24T01:17:34;11.30;99.90
3614;DHT22;1821;50.936;6.854;2023-04-24T01:18:16;11.50;99.90
3614;DHT22;1821;50.936;6.854;2023-04-24T01:18:59;11.50;99.90
3614;DHT22;1821;50.936;6.854;2023-04-24T01:19:43;11.20;99.90
3614;DHT22;1821;50.936;6.854;2023-04-24T01:20:28;11.60;99.90
3614;DHT22;1821;50.936;6.854;2023-04-24T01:21:13;11.20;99.90
3614;DHT22;1821;50.936;6.854;2023-04-24T01:21:59;11.50;99.90
3614;DHT22;1821;50.936;6.854;2023-04-24T01:22:43;11.20;99.90
3614;DHT22;1821;50.936;6.854;2023-04-24T01:23:26;11.60;99.90
3614;DHT22;1821;50.936;6.854;2023-04-24T01:24:08;11.30;99.90
3614;DHT22;1821;50.936;6.854;2023-04-24T01:24:51;11.60;99.90
3614;DHT22;1821;50.936;6.854;2023-04-24T01:25:36;10.90;99.90
3614;DHT22;1821;50.936;6.854;2023-04-24T01:26:19;11.10;99.90
3614;DHT22;1821;50.936;6.854;2023-04-24T01:27:01;11.00;99.90
3614;DHT22;1821;50.936;6.854;2023-04-24T01:27:44;10.90;99.90
3614;DHT22;1821;50.936;6.854;2023-04-24T01:28:26;11.60;99.90
3614;DHT22;1821;50.936;6.854;2023-04-24T01:29:08;11.20;99.90
3614;DHT22;1821;50.936;6.854;2023-04-24T01:29:54;11.00;99.90
3614;DHT22;1821;50.936;6.854;2023-04-24T01:30:36;10.90;99.90
3614;DHT22;1821;50.936;6.854;2023-04-24T01:31:18;11.40;99.90
3614;DHT22;1821;50.936;6.854;2023-04-24T01:32:00;11.30;99.90
3614;DHT22;1821;50.936;6.854;2023-04-24T01:32:43;11.20;99.90
3614;DHT22;1821;50.936;6.854;2023-04-24T01:33:28;11.00;99.90
3614;DHT22;1821;50.936;6.854;2023-04-24T01:34:10;11.20;99.90
3614;DHT22;1821;50.936;6.854;2023-04-24T01:34:53;11.00;99.90
3614;DHT22;1821;50.936;6.854;2023-04-24T01:35:36;10.90;99.90
3614;DHT22;1821;50.936;6.854;2023-04-24T01:36:21;10.90;99.90
3614;DHT22;1821;50.936;6.854;2023-04-24T01:37:07;11.10;99.90
3614;DHT22;1821;50.936;6.854;2023-04-24T01:37:49;11.10;99.90
3614;DHT22;1821;50.936;6.854;2023-04-24T01:38:31;10.90;99.90
3614;DHT22;1821;50.936;6.854;2023-04-24T01:39:14;10.90;99.90
3614;DHT22;1821;50.936;6.854;2023-04-24T01:39:57;10.90;99.90
3614;DHT22;1821;50.936;6.854;2023-04-24T01:40:39;11.10;99.90
3614;DHT22;1821;50.936;6.854;2023-04-24T01:41:21;10.70;99.90
3614;DHT22;1821;50.936;6.854;2023-04-24T01:42:06;10.70;99.90
3614;DHT22;1821;50.936;6.854;2023-04-24T01:42:48;10.80;99.90
3614;DHT22;1821;50.936;6.854;2023-04-24T01:43:30;11.40;99.90
3614;DHT22;1821;50.936;6.854;2023-04-24T01:44:15;11.00;99.90
3614;DHT22;1821;50.936;6.854;2023-04-24T01:44:58;10.50;99.90
3614;DHT22;1821;50.936;6.854;2023-04-24T01:45:41;10.50;99.90
3614;DHT22;1821;50.936;6.854;2023-04-24T01:46:25;10.80;99.90
3614;DHT22;1821;50.936;6.854;2023-04-24T01:47:08;10.90;99.90
3614;DHT22;1821;50.936;6.854;2023-04-24T01:47:50;10.50;99.90
3614;DHT22;1821;50.936;6.854;2023-04-24T01:48:33;10.60;99.90
3614;DHT22;1821;50.936;6.854;2023-04-24T01:49:15;10.60;99.90
3614;DHT22;1821;50.936;6.854;2023-04-24T01:49:58;10.60;99.90
3614;DHT22;1821;50.936;6.854;2023-04-24T01:50:42;10.90;99.90
3614;DHT22;1821;50.936;6.854;2023-04-24T01:51:25;10.70;99.90
3614;DHT22;1821;50.936;6.854;2023-04-24T01:52:07;10.80;99.90
3614;DHT22;1821;50.936;6.854;2023-04-24T01:52:49;10.40;99.90
3614;DHT22;1821;50.936;6.854;2023-04-24T01:53:31;10.50;99.90
3614;DHT22;1821;50.936;6.854;2023-04-24T01:54:15;10.80;99.90
3614;DHT22;1821;50.936;6.854;2023-04-24T01:54:59;10.50;99.90
3614;DHT22;1821;50.936;6.854;2023-04-24T01:55:42;10.50;99.90
3614;DHT22;1821;50.936;6.854;2023-04-24T01:56:24;10.50;99.90
3614;DHT22;1821;50.936;6.854;2023-04-24T01:57:07;10.40;99.90
3614;DHT22;1821;50.936;6.854;2023-04-24T01:57:50;10.50;99.90
3614;DHT22;1821;50.936;6.854;2023-04-24T01:58:33;10.10;99.90
3614;DHT22;1821;50.936;6.854;2023-04-24T01:59:17;10.30;99.90
3614;DHT22;1821;50.936;6.854;2023-04-24T01:59:59;10.40;99.90
3614;DHT22;1821;50.936;6.854;2023-04-24T02:00:42;10.30;99.90
3614;DHT22;1821;50.936;6.854;2023-04-24T02:01:24;10.30;99.90
3614;DHT22;1821;50.936;6.854;2023-04-24T02:02:06;10.40;99.90
3614;DHT22;1821;50.936;6.854;2023-04-24T02:02:51;10.60;99.90
3614;DHT22;1821;50.936;6.854;2023-04-24T02:03:33;10.30;99.90
3614;DHT22;1821;50.936;6.854;2023-04-24T02:04:15;10.50;99.90
3614;DHT22;1821;50.936;6.854;2023-04-24T02:04:58;9.90;99.90
3614;DHT22;1821;50.936;6.854;2023-04-24T02:05:40;10.20;99.90
3614;DHT22;1821;50.936;6.854;2023-04-24T02:06:25;10.40;99.90
3614;DHT22;1821;50.936;6.854;2023-04-24T02:07:07;10.20;99.90
3614;DHT22;1821;50.936;6.854;2023-04-24T02:07:49;10.30;99.90
3614;DHT22;1821;50.936;6.854;2023-04-24T02:08:31;10.20;99.90
3614;DHT22;1821;50.936;6.854;2023-04-24T02:09:15;9.70;99.90
3614;DHT22;1821;50.936;6.854;2023-04-24T02:09:57;9.90;99.90
3614;DHT22;1821;50.936;6.854;2023-04-24T02:10:39;9.80;99.90
3614;DHT22;1821;50.936;6.854;2023-04-24T02:11:21;9.90;99.90
3614;DHT22;1821;50.936;6.854;2023-04-24T02:12:03;9.70;99.90
3614;DHT22;1821;50.936;6.854;2023-04-24T02:12:45;9.80;99.90
3614;DHT22;1821;50.936;6.854;2023-04-24T02:13:29;10.00;99.90
3614;DHT22;1821;50.936;6.854;2023-04-24T02:14:11;10.10;99.90
3614;DHT22;1821;50.936;6.854;2023-04-24T02:14:55;9.80;99.90
3614;DHT22;1821;50.936;6.854;2023-04-24T02:15:37;10.00;99.90
3614;DHT22;1821;50.936;6.854;2023-04-24T02:16:19;9.60;99.90
3614;DHT22;1821;50.936;6.854;2023-04-24T02:17:01;10.10;99.90
3614;DHT22;1821;50.936;6.854;2023-04-24T02:17:45;9.80;99.90
3614;DHT22;1821;50.936;6.854;2023-04-24T02:18:27;9.80;99.90
3614;DHT22;1821;50.936;6.854;2023-04-24T02:19:10;10.00;99.90
3614;DHT22;1821;50.936;6.854;2023-04-24T02:19:52;9.60;99.90
3614;DHT22;1821;50.936;6.854;2023-04-24T02:20:33;10.00;99.90
3614;DHT22;1821;50.936;6.854;2023-04-24T02:21:17;10.40;99.90
3614;DHT22;1821;50.936;6.854;2023-04-24T02:21:58;9.70;99.90
3614;DHT22;1821;50.936;6.854;2023-04-24T02:22:40;9.30;99.90
3614;DHT22;1821;50.936;6.854;2023-04-24T02:23:22;9.50;99.90
3614;DHT22;1821;50.936;6.854;2023-04-24T02:24:05;9.80;99.90
3614;DHT22;1821;50.936;6.854;2023-04-24T02:24:47;9.80;99.90
3614;DHT22;1821;50.936;6.854;2023-04-24T02:25:29;9.70;99.90
3614;DHT22;1821;50.936;6.854;2023-04-24T02:26:11;9.80;99.90
3614;DHT22;1821;50.936;6.854;2023-04-24T02:26:53;10.50;99.90
3614;DHT22;1821;50.936;6.854;2023-04-24T02:27:37;9.70;99.90
3614;DHT22;1821;50.936;6.854;2023-04-24T02:28:20;9.90;99.90
3614;DHT22;1821;50.936;6.854;2023-04-24T02:29:02;9.80;99.90
3614;DHT22;1821;50.936;6.854;2023-04-24T02:29:44;10.00;99.90
3614;DHT22;1821;50.936;6.854;2023-04-24T02:30:26;9.50;99.90
3614;DHT22;1821;50.936;6.854;2023-04-24T02:31:10;9.60;99.90
3614;DHT22;1821;50.936;6.854;2023-04-24T02:31:52;9.90;99.90
3614;DHT22;1821;50.936;6.854;2023-04-24T02:32:34;10.20;99.90
3614;DHT22;1821;50.936;6.854;2023-04-24T02:33:17;9.70;99.90
3614;DHT22;1821;50.936;6.854;2023-04-24T02:33:59;9.70;99.90
3614;DHT22;1821;50.936;6.854;2023-04-24T02:34:41;9.90;99.90
3614;DHT22;1821;50.936;6.854;2023-04-24T02:35:25;10.10;99.90
3614;DHT22;1821;50.936;6.854;2023-04-24T02:36:07;9.70;99.90
3614;DHT22;1821;50.936;6.854;2023-04-24T02:36:49;10.30;99.90
3614;DHT22;1821;50.936;6.854;2023-04-24T02:37:31;9.80;99.90
3614;DHT22;1821;50.936;6.854;2023-04-24T02:38:13;10.20;99.90
3614;DHT22;1821;50.936;6.854;2023-04-24T02:38:54;9.90;99.90
3614;DHT22;1821;50.936;6.854;2023-04-24T02:39:36;9.80;99.90
3614;DHT22;1821;50.936;6.854;2023-04-24T02:40:21;10.20;99.90
3614;DHT22;1821;50.936;6.854;2023-04-24T02:41:03;10.10;99.90
3614;DHT22;1821;50.936;6.854;2023-04-24T02:41:47;9.80;99.90
3614;DHT22;1821;50.936;6.854;2023-04-24T02:42:29;10.20;99.90
3614;DHT22;1821;50.936;6.854;2023-04-24T02:43:11;9.90;99.90
3614;DHT22;1821;50.936;6.854;2023-04-24T02:43:56;10.00;99.90
3614;DHT22;1821;50.936;6.854;2023-04-24T02:44:37;9.80;99.90
3614;DHT22;1821;50.936;6.854;2023-04-24T02:45:20;10.10;99.90
3614;DHT22;1821;50.936;6.854;2023-04-24T02:46:02;10.30;99.90
3614;DHT22;1821;50.936;6.854;2023-04-24T02:46:44;10.40;99.90
3614;DHT22;1821;50.936;6.854;2023-04-24T02:47:26;10.30;99.90
3614;DHT22;1821;50.936;6.854;2023-04-24T02:48:08;9.90;99.90
3614;DHT22;1821;50.936;6.854;2023-04-24T02:48:50;9.90;99.90
3614;DHT22;1821;50.936;6.854;2023-04-24T02:49:34;10.20;99.90
3614;DHT22;1821;50.936;6.854;2023-04-24T02:50:16;10.10;99.90
3614;DHT22;1821;50.936;6.854;2023-04-24T02:50:58;10.20;99.90
3614;DHT22;1821;50.936;6.854;2023-04-24T02:51:42;9.80;99.90
3614;DHT22;1821;50.936;6.854;2023-04-24T02:52:25;10.20;99.90
3614;DHT22;1821;50.936;6.854;2023-04-24T02:53:06;10.20;99.90
3614;DHT22;1821;50.936;6.854;2023-04-24T02:53:48;10.20;99.90
3614;DHT22;1821;50.936;6.854;2023-04-24T02:54:30;10.30;99.90
3614;DHT22;1821;50.936;6.854;2023-04-24T02:55:12;10.30;99.90
3614;DHT22;1821;50.936;6.854;2023-04-24T02:55:54;10.30;99.90
3614;DHT22;1821;50.936;6.854;2023-04-24T02:56:36;10.30;99.90
3614;DHT22;1821;50.936;6.854;2023-04-24T02:57:20;10.20;99.90
3614;DHT22;1821;50.936;6.854;2023-04-24T02:58:02;10.40;99.90
3614;DHT22;1821;50.936;6.854;2023-04-24T02:58:45;9.90;99.90
3614;DHT22;1821;50.936;6.854;2023-04-24T02:59:26;10.30;99.90
3614;DHT22;1821;50.936;6.854;2023-04-24T03:00:11;9.80;99.90
3614;DHT22;1821;50.936;6.854;2023-04-24T03:00:54;10.00;99.90
3614;DHT22;1821;50.936;6.854;2023-04-24T03:01:37;10.30;99.90
3614;DHT22;1821;50.936;6.854;2023-04-24T03:02:19;10.30;99.90
3614;DHT22;1821;50.936;6.854;2023-04-24T03:03:02;9.90;99.90
3614;DHT22;1821;50.936;6.854;2023-04-24T03:03:44;10.20;99.90
3614;DHT22;1821;50.936;6.854;2023-04-24T03:04:27;10.00;99.90
3614;DHT22;1821;50.936;6.854;2023-04-24T03:05:09;6.70;99.90
3614;DHT22;1821;50.936;6.854;2023-04-24T03:05:53;9.80;99.90
3614;DHT22;1821;50.936;6.854;2023-04-24T03:06:35;9.90;99.90
3614;DHT22;1821;50.936;6.854;2023-04-24T03:07:19;9.80;99.90
3614;DHT22;1821;50.936;6.854;2023-04-24T03:08:02;10.00;99.90
3614;DHT22;1821;50.936;6.854;2023-04-24T03:08:44;10.00;99.90
3614;DHT22;1821;50.936;6.854;2023-04-24T03:09:26;9.70;99.90
3614;DHT22;1821;50.936;6.854;2023-04-24T03:10:08;10.10;99.90
3614;DHT22;1821;50.936;6.854;2023-04-24T03:10:52;10.10;99.90
3614;DHT22;1821;50.936;6.854;2023-04-24T03:11:35;10.00;99.90
3614;DHT22;1821;50.936;6.854;2023-04-24T03:12:16;10.10;99.90
3614;DHT22;1821;50.936;6.854;2023-04-24T03:12:59;9.90;99.90
3614;DHT22;1821;50.936;6.854;2023-04-24T03:13:41;10.00;99.90
3614;DHT22;1821;50.936;6.854;2023-04-24T03:14:23;9.90;99.90
3614;DHT22;1821;50.936;6.854;2023-04-24T03:15:05;9.60;99.90
3614;DHT22;1821;50.936;6.854;2023-04-24T03:15:49;10.00;99.90
3614;DHT22;1821;50.936;6.854;2023-04-24T03:16:31;10.00;99.90
3614;DHT22;1821;50.936;6.854;2023-04-24T03:17:15;9.80;99.90
3614;DHT22;1821;50.936;6.854;2023-04-24T03:17:57;9.80;99.90
3614;DHT22;1821;50.936;6.854;2023-04-24T03:18:38;9.80;99.90
3614;DHT22;1821;50.936;6.854;2023-04-24T03:19:20;9.60;99.90
3614;DHT22;1821;50.936;6.854;2023-04-24T03:20:03;9.70;99.90
3614;DHT22;1821;50.936;6.854;2023-04-24T03:20:46;9.70;99.90
3614;DHT22;1821;50.936;6.854;2023-04-24T03:21:31;9.90;99.90
3614;DHT22;1821;50.936;6.854;2023-04-24T03:22:13;9.60;99.90
3614;DHT22;1821;50.936;6.854;2023-04-24T03:22:57;9.80;99.90
3614;DHT22;1821;50.936;6.854;2023-04-24T03:23:39;10.00;99.90
3614;DHT22;1821;50.936;6.854;2023-04-24T03:24:21;9.80;99.90
3614;DHT22;1821;50.936;6.854;2023-04-24T03:25:04;9.70;99.90
3614;DHT22;1821;50.936;6.854;2023-04-24T03:25:46;10.10;99.90
3614;DHT22;1821;50.936;6.854;2023-04-24T03:26:30;9.80;99.90
3614;DHT22;1821;50.936;6.854;2023-04-24T03:27:11;9.90;99.90
3614;DHT22;1821;50.936;6.854;2023-04-24T03:27:56;10.30;99.90
3614;DHT22;1821;50.936;6.854;2023-04-24T03:28:38;9.90;99.90
3614;DHT22;1821;50.936;6.854;2023-04-24T03:29:22;9.80;99.90
3614;DHT22;1821;50.936;6.854;2023-04-24T03:30:06;10.10;99.90
3614;DHT22;1821;50.936;6.854;2023-04-24T03:30:51;9.80;99.90
3614;DHT22;1821;50.936;6.854;2023-04-24T03:31:33;9.80;99.90
3614;DHT22;1821;50.936;6.854;2023-04-24T03:32:18;9.80;99.90
3614;DHT22;1821;50.936;6.854;2023-04-24T03:33:00;9.60;99.90
3614;DHT22;1821;50.936;6.854;2023-04-24T03:33:42;10.00;99.90
3614;DHT22;1821;50.936;6.854;2023-04-24T03:34:24;10.00;99.90
3614;DHT22;1821;50.936;6.854;2023-04-24T03:35:07;9.80;99.90
3614;DHT22;1821;50.936;6.854;2023-04-24T03:35:50;9.50;99.90
3614;DHT22;1821;50.936;6.854;2023-04-24T03:36:31;9.60;99.90
3614;DHT22;1821;50.936;6.854;2023-04-24T03:37:16;9.70;99.90
3614;DHT22;1821;50.936;6.854;2023-04-24T03:37:58;10.00;99.90
3614;DHT22;1821;50.936;6.854;2023-04-24T03:38:40;10.00;99.90
3614;DHT22;1821;50.936;6.854;2023-04-24T03:39:22;9.80;99.90
3614;DHT22;1821;50.936;6.854;2023-04-24T03:40:05;9.30;99.90
3614;DHT22;1821;50.936;6.854;2023-04-24T03:40:50;9.40;99.90
3614;DHT22;1821;50.936;6.854;2023-04-24T03:41:32;9.80;99.90
3614;DHT22;1821;50.936;6.854;2023-04-24T03:42:16;9.80;99.90
3614;DHT22;1821;50.936;6.854;2023-04-24T03:42:58;9.60;99.90
3614;DHT22;1821;50.936;6.854;2023-04-24T03:43:40;9.80;99.90
3614;DHT22;1821;50.936;6.854;2023-04-24T03:44:22;9.90;99.90
3614;DHT22;1821;50.936;6.854;2023-04-24T03:45:05;9.80;99.90
3614;DHT22;1821;50.936;6.854;2023-04-24T03:45:47;9.50;99.90
3614;DHT22;1821;50.936;6.854;2023-04-24T03:46:31;9.90;99.90
3614;DHT22;1821;50.936;6.854;2023-04-24T03:47:13;9.50;99.90
3614;DHT22;1821;50.936;6.854;2023-04-24T03:47:55;9.80;99.90
3614;DHT22;1821;50.936;6.854;2023-04-24T03:48:37;9.40;99.90
3614;DHT22;1821;50.936;6.854;2023-04-24T03:49:19;9.80;99.90
3614;DHT22;1821;50.936;6.854;2023-04-24T03:50:02;9.70;99.90
3614;DHT22;1821;50.936;6.854;2023-04-24T03:50:46;9.90;99.90
3614;DHT22;1821;50.936;6.854;2023-04-24T03:51:28;9.60;99.90
3614;DHT22;1821;50.936;6.854;2023-04-24T03:52:12;9.40;99.90
3614;DHT22;1821;50.936;6.854;2023-04-24T03:52:54;9.60;99.90
3614;DHT22;1821;50.936;6.854;2023-04-24T03:53:36;9.70;99.90
3614;DHT22;1821;50.936;6.854;2023-04-24T03:54:20;9.60;99.90
3614;DHT22;1821;50.936;6.854;2023-04-24T03:55:01;9.70;99.90
3614;DHT22;1821;50.936;6.854;2023-04-24T03:55:46;9.80;99.90
3614;DHT22;1821;50.936;6.854;2023-04-24T03:56:28;9.70;99.90
3614;DHT22;1821;50.936;6.854;2023-04-24T03:57:10;9.50;99.90
3614;DHT22;1821;50.936;6.854;2023-04-24T03:57:52;9.90;99.90
3614;DHT22;1821;50.936;6.854;2023-04-24T03:58:36;9.80;99.90
3614;DHT22;1821;50.936;6.854;2023-04-24T03:59:18;9.60;99.90
3614;DHT22;1821;50.936;6.854;2023-04-24T04:00:00;9.70;99.90
3614;DHT22;1821;50.936;6.854;2023-04-24T04:00:43;9.60;99.90
3614;DHT22;1821;50.936;6.854;2023-04-24T04:01:26;9.60;99.90
3614;DHT22;1821;50.936;6.854;2023-04-24T04:02:09;9.70;99.90
3614;DHT22;1821;50.936;6.854;2023-04-24T04:02:51;9.50;99.90
3614;DHT22;1821;50.936;6.854;2023-04-24T04:03:34;9.70;99.90
3614;DHT22;1821;50.936;6.854;2023-04-24T04:04:16;9.40;99.90
3614;DHT22;1821;50.936;6.854;2023-04-24T04:04:59;9.60;99.90
3614;DHT22;1821;50.936;6.854;2023-04-24T04:05:41;9.40;99.90
3614;DHT22;1821;50.936;6.854;2023-04-24T04:06:23;9.70;99.90
3614;DHT22;1821;50.936;6.854;2023-04-24T04:07:04;9.50;99.90
3614;DHT22;1821;50.936;6.854;2023-04-24T04:07:46;9.70;99.90
3614;DHT22;1821;50.936;6.854;2023-04-24T04:08:30;9.50;99.90
3614;DHT22;1821;50.936;6.854;2023-04-24T04:09:12;9.70;99.90
3614;DHT22;1821;50.936;6.854;2023-04-24T04:09:55;9.50;99.90
3614;DHT22;1821;50.936;6.854;2023-04-24T04:10:37;9.40;99.90
3614;DHT22;1821;50.936;6.854;2023-04-24T04:11:21;9.50;99.90
3614;DHT22;1821;50.936;6.854;2023-04-24T04:12:03;9.80;99.90
3614;DHT22;1821;50.936;6.854;2023-04-24T04:12:45;9.70;99.90
3614;DHT22;1821;50.936;6.854;2023-04-24T04:13:26;9.70;99.90
3614;DHT22;1821;50.936;6.854;2023-04-24T04:14:08;9.50;99.90
3614;DHT22;1821;50.936;6.854;2023-04-24T04:14:52;9.60;99.90
3614;DHT22;1821;50.936;6.854;2023-04-24T04:15:34;9.60;99.90
3614;DHT22;1821;50.936;6.854;2023-04-24T04:16:17;9.40;99.90
3614;DHT22;1821;50.936;6.854;2023-04-24T04:16:59;9.60;99.90
3614;DHT22;1821;50.936;6.854;2023-04-24T04:17:41;9.80;99.90
3614;DHT22;1821;50.936;6.854;2023-04-24T04:18:23;9.60;99.90
3614;DHT22;1821;50.936;6.854;2023-04-24T04:19:05;9.30;99.90
3614;DHT22;1821;50.936;6.854;2023-04-24T04:19:47;9.80;99.90
3614;DHT22;1821;50.936;6.854;2023-04-24T04:20:31;9.60;99.90
3614;DHT22;1821;50.936;6.854;2023-04-24T04:21:15;9.30;99.90
3614;DHT22;1821;50.936;6.854;2023-04-24T04:21:57;9.90;99.90
3614;DHT22;1821;50.936;6.854;2023-04-24T04:22:41;9.70;99.90
3614;DHT22;1821;50.936;6.854;2023-04-24T04:23:25;9.60;99.90
3614;DHT22;1821;50.936;6.854;2023-04-24T04:24:07;9.60;99.90
3614;DHT22;1821;50.936;6.854;2023-04-24T04:24:49;9.60;99.90
3614;DHT22;1821;50.936;6.854;2023-04-24T04:25:32;9.90;99.90
3614;DHT22;1821;50.936;6.854;2023-04-24T04:26:14;9.90;99.90
3614;DHT22;1821;50.936;6.854;2023-04-24T04:26:56;9.70;99.90
3614;DHT22;1821;50.936;6.854;2023-04-24T04:27:39;9.50;99.90
3614;DHT22;1821;50.936;6.854;2023-04-24T04:28:23;9.50;99.90
3614;DHT22;1821;50.936;6.854;2023-04-24T04:29:06;9.50;99.90
3614;DHT22;1821;50.936;6.854;2023-04-24T04:29:48;9.90;99.90
3614;DHT22;1821;50.936;6.854;2023-04-24T04:30:30;9.40;99.90
3614;DHT22;1821;50.936;6.854;2023-04-24T04:31:14;9.90;99.90
3614;DHT22;1821;50.936;6.854;2023-04-24T04:31:56;9.50;99.90
3614;DHT22;1821;50.936;6.854;2023-04-24T04:32:40;9.70;99.90
3614;DHT22;1821;50.936;6.854;2023-04-24T04:33:25;9.70;99.90
3614;DHT22;1821;50.936;6.854;2023-04-24T04:34:07;9.70;99.90
3614;DHT22;1821;50.936;6.854;2023-04-24T04:34:49;9.70;99.90
3614;DHT22;1821;50.936;6.854;2023-04-24T04:35:34;9.80;99.90
3614;DHT22;1821;50.936;6.854;2023-04-24T04:36:16;9.40;99.90
3614;DHT22;1821;50.936;6.854;2023-04-24T04:37:01;9.80;99.90
3614;DHT22;1821;50.936;6.854;2023-04-24T04:37:44;9.70;99.90
3614;DHT22;1821;50.936;6.854;2023-04-24T04:38:26;9.50;99.90
3614;DHT22;1821;50.936;6.854;2023-04-24T04:39:11;9.80;99.90
3614;DHT22;1821;50.936;6.854;2023-04-24T04:39:58;10.00;99.90
3614;DHT22;1821;50.936;6.854;2023-04-24T04:40:39;9.70;99.90